Unbenanntes Dokument
Flugplatz Bielefeld Platzwetter

 

Aktuelles Platzwetter am Flugplatz Bielefeld EDLI

22.02.18 ,10:57 Uhr

METAR EDLI 221057Z 05009KT 9999 01/M03 Q1025

 

Windwerte

 

Wolkenuntergrenzen

Wind aktuell:040 ° mit 11 kt
Wind 10 min Extrem:
30 ° bis 80 ° mit 5 kt bis 13 kt
Seitenwindkomponente: -10.0 kt
Wolkengrenze 1:
Wolkengrenze 2:
Wolkengrenze 3:

Webcam

Temperatur

       

Sichtweite:

20.000 Meter

1.3 °C
Taupunkt: -3.5 °C
Luftfeuchtigkeit: 70 %

Luftdruck:

QNH: 1025 hPa (30.27 in Hg)
QFE: 1009 hPa (29.80 in Hg)

Diese Daten werden automatisch ermittelt bzw. übertragen und sind nicht geprüft. Für die Richtigkeit wird daher keine Gewähr übernommen. Sie ersetzen im übrigen nicht die Flugwetterberatung. Alle Zeitangaben beziehen sich auf UTC. Die Seite wird einmal die Minute aktualisiert! Sollten Sie ein ältere Seite haben, so drücken Sie bitte auf den Reload Button Ihres Browsers!